createdAt,value
2023-01-26T00:07:11.356Z,2.43
2023-01-26T00:22:03.964Z,2.41
2023-01-26T00:36:52.753Z,2.36
2023-01-26T00:51:42.042Z,2.35
2023-01-26T01:06:32.179Z,2.30
2023-01-26T01:21:22.459Z,2.34
2023-01-26T01:36:11.655Z,2.28
2023-01-26T01:51:04.555Z,2.31
2023-01-26T02:06:17.285Z,2.34
2023-01-26T02:21:10.672Z,2.28
2023-01-26T02:36:06.631Z,2.33
2023-01-26T02:50:53.313Z,2.21
2023-01-26T03:05:43.946Z,2.23
2023-01-26T03:20:52.206Z,2.11
2023-01-26T03:35:46.855Z,2.15
2023-01-26T03:50:55.738Z,2.13
2023-01-26T04:06:16.375Z,2.19
2023-01-26T04:21:24.830Z,2.16
2023-01-26T04:36:21.279Z,2.14
2023-01-26T04:51:13.902Z,2.12
2023-01-26T05:06:07.202Z,2.09
2023-01-26T05:20:57.299Z,1.93
2023-01-26T05:36:01.536Z,1.96
2023-01-26T05:50:48.781Z,1.81
2023-01-26T06:05:41.541Z,1.83
2023-01-26T06:20:34.587Z,1.87
2023-01-26T06:35:22.785Z,1.68
2023-01-26T06:50:13.445Z,1.82
2023-01-26T07:05:02.755Z,1.68
2023-01-26T07:19:53.111Z,1.72
2023-01-26T07:34:42.607Z,1.73
2023-01-26T07:49:31.701Z,1.58
2023-01-26T08:04:21.339Z,1.64
2023-01-26T08:19:11.725Z,1.70
2023-01-26T08:49:00.329Z,1.72
2023-01-26T09:03:52.251Z,1.76
2023-01-26T09:18:39.180Z,1.73
2023-01-26T09:33:29.250Z,1.69
2023-01-26T09:48:24.306Z,1.72
2023-01-26T10:03:16.781Z,1.83
2023-01-26T10:18:06.341Z,1.79
2023-01-26T10:32:55.951Z,1.82
2023-01-26T10:47:45.728Z,1.89
2023-01-26T11:02:35.772Z,1.89
2023-01-26T11:17:26.167Z,1.80
2023-01-26T11:32:36.890Z,1.79
2023-01-26T11:47:41.186Z,1.60
2023-01-26T12:02:38.511Z,1.54
2023-01-26T12:17:42.908Z,1.71
2023-01-26T12:32:37.256Z,1.65
2023-01-26T12:47:34.236Z,1.82
2023-01-26T13:02:28.167Z,1.91
2023-01-26T13:17:16.647Z,1.82
2023-01-26T13:32:09.072Z,1.83
2023-01-26T13:47:02.576Z,1.84
2023-01-26T14:01:52.772Z,1.87
2023-01-26T14:16:42.429Z,1.87
2023-01-26T14:31:32.532Z,1.73
2023-01-26T14:46:25.047Z,1.74
2023-01-26T15:01:23.666Z,1.73
2023-01-26T15:16:17.040Z,1.58
2023-01-26T15:31:06.649Z,1.48
2023-01-26T15:45:56.211Z,1.38
2023-01-26T16:00:50.472Z,1.39
2023-01-26T16:15:37.912Z,1.30
2023-01-26T16:30:26.874Z,1.27
2023-01-26T16:45:22.275Z,1.24
2023-01-26T17:00:14.201Z,1.25
2023-01-26T17:15:07.491Z,1.33
2023-01-26T17:29:57.495Z,1.28
2023-01-26T17:44:47.964Z,1.37
2023-01-26T17:59:37.425Z,1.33
2023-01-26T18:14:27.724Z,1.40
2023-01-26T18:29:17.633Z,1.30
2023-01-26T18:44:07.752Z,1.35
2023-01-26T19:13:48.034Z,1.34
2023-01-26T19:28:37.988Z,1.33
2023-01-26T19:43:28.439Z,1.29
2023-01-26T19:58:18.608Z,1.33
2023-01-26T20:13:08.441Z,1.26
2023-01-26T20:27:57.347Z,1.18
2023-01-26T20:42:47.441Z,1.09
2023-01-26T20:57:39.037Z,1.06
2023-01-26T21:12:28.642Z,1.09
2023-01-26T21:27:18.054Z,1.05
2023-01-26T21:42:07.568Z,1.12
2023-01-26T21:56:56.714Z,1.02
2023-01-26T22:11:46.247Z,0.98
2023-01-26T22:26:35.464Z,1.03
2023-01-26T22:41:25.027Z,1.00
2023-01-26T22:56:14.151Z,0.94
2023-01-26T23:11:04.740Z,1.06
2023-01-26T23:25:54.920Z,0.93
2023-01-26T23:40:45.314Z,0.94
2023-01-26T23:55:34.446Z,0.97
